Terminal Aerodrome Forecast
Issued by NWS

Home | Current Version | Previous Version | Text Only | Print | Product List | Glossary On
Versions: 1 2 3 4 5 6 7 8 9 10 11 12 13
000
FTUS46 KLOX 220500
TAFWJF
TAF
KWJF 220522Z 2206/2306 25007KT P6SM SKC
     FM221100 VRB03KT P6SM SKC
     FM222200 23015KT P6SM SKC
     FM230500 25007KT P6SM SKC=

USA.gov is the U.S. government's official web portal to all federal, state and local government web resources and services.